Time;durP1;ratioP1;P1;durP2;ratioP2;P2;SDS_P1;SDS_P2;PMS_P1;PMS_P2;Temp;Humidity;BMP_temperature;BMP_pressure;BME280_temperature;BME280_humidity;BME280_pressure;Samples;Min_cycle;Max_cycle;Signal;HPM_P1;HPM_P2
2022/01/08 20:12:19;;;;;;;10.47;5.93;;;3.00;99.90;;;;;;6215889;22;20527;-55
2022/01/08 20:14:44;;;;;;;13.03;5.87;;;2.90;99.90;;;;;;6184324;23;20485;-53
2022/01/08 20:17:10;;;;;;;11.93;5.87;;;2.90;45.90;;;;;;6211839;23;20413;-52
2022/01/08 20:19:36;;;;;;;13.93;6.80;;;2.90;99.90;;;;;;6211133;23;20143;-53
2022/01/08 20:22:02;;;;;;;17.00;6.30;;;2.90;1.00;;;;;;6211764;23;20261;-53
2022/01/08 20:24:28;;;;;;;11.30;6.23;;;2.90;1.00;;;;;;6210319;23;20370;-54
2022/01/08 20:26:54;;;;;;;11.83;6.37;;;2.80;99.90;;;;;;6209967;23;20859;-53
2022/01/08 20:29:19;;;;;;;12.00;6.23;;;2.80;1.00;;;;;;6210762;23;20382;-54
2022/01/08 20:31:45;;;;;;;13.70;6.17;;;2.70;34.90;;;;;;6211313;23;20151;-54
2022/01/08 20:34:11;;;;;;;14.17;6.13;;;2.70;1.00;;;;;;6211213;23;20868;-53
2022/01/08 20:36:37;;;;;;;14.10;7.00;;;2.70;99.90;;;;;;6211294;23;20493;-54
2022/01/08 20:39:03;;;;;;;13.10;6.10;;;2.60;1.00;;;;;;6211182;23;20142;-54
2022/01/08 20:41:28;;;;;;;12.20;5.53;;;2.60;1.00;;;;;;6211055;23;20441;-52
2022/01/08 20:43:54;;;;;;;11.70;6.53;;;2.60;16.90;;;;;;6211743;23;20158;-51
2022/01/08 20:46:19;;;;;;;9.80;5.80;;;2.50;99.90;;;;;;6209762;23;20271;-53
2022/01/08 20:48:46;;;;;;;12.07;5.73;;;2.50;99.90;;;;;;6211459;23;20243;-51
2022/01/08 20:51:13;;;;;;;11.03;6.10;;;2.50;99.90;;;;;;6210348;23;20604;-52
2022/01/08 20:53:39;;;;;;;12.00;5.87;;;2.50;99.90;;;;;;6211275;23;20373;-52
2022/01/08 20:56:05;;;;;;;9.33;5.83;;;2.40;1.00;;;;;;6210254;23;20377;-51
2022/01/08 20:58:31;;;;;;;12.87;6.33;;;2.40;99.90;;;;;;6211158;23;20249;-51
2022/01/08 21:00:57;;;;;;;12.87;6.30;;;2.40;99.90;;;;;;6211107;23;20428;-52
2022/01/08 21:03:23;;;;;;;11.80;5.43;;;2.30;1.00;;;;;;6210770;23;20418;-51
2022/01/08 21:05:49;;;;;;;8.80;5.17;;;2.40;99.90;;;;;;6208988;23;20431;-53
2022/01/08 21:08:16;;;;;;;16.47;6.10;;;2.30;1.00;;;;;;6210623;23;20804;-51
2022/01/08 21:10:43;;;;;;;9.07;5.30;;;2.40;1.00;;;;;;6210051;23;20290;-51
2022/01/08 21:13:09;;;;;;;12.07;5.80;;;2.30;1.00;;;;;;6210750;23;20385;-51
2022/01/08 21:15:35;;;;;;;11.43;6.10;;;2.30;1.00;;;;;;6210275;23;20487;-52
2022/01/08 21:18:01;;;;;;;8.47;5.20;;;2.30;1.00;;;;;;6211012;23;20369;-52
2022/01/08 21:20:27;;;;;;;9.43;5.53;;;2.40;99.90;;;;;;6210981;23;20670;-52
2022/01/08 21:22:52;;;;;;;9.20;5.87;;;2.40;1.00;;;;;;6211072;23;20217;-52
2022/01/08 21:25:18;;;;;;;8.53;5.60;;;2.30;99.90;;;;;;6209271;23;20143;-52
2022/01/08 21:27:44;;;;;;;13.83;6.30;;;2.40;99.90;;;;;;6210462;23;20154;-51
2022/01/08 21:30:11;;;;;;;8.60;5.00;;;2.40;1.00;;;;;;6210825;23;20154;-52
2022/01/08 21:32:38;;;;;;;9.60;6.20;;;2.40;1.00;;;;;;6210380;23;20150;-53
2022/01/08 21:35:05;;;;;;;7.13;5.07;;;2.40;1.00;;;;;;6209317;23;20390;-53
2022/01/08 21:37:36;;;;;;;10.20;5.93;;;2.40;99.90;;;;;;6210282;23;20384;-52
2022/01/08 21:40:11;;;;;;;12.50;6.00;;;2.30;1.00;;;;;;6185296;23;20397;-51
2022/01/08 21:42:36;;;;;;;11.97;6.23;;;2.40;1.00;;;;;;6212403;23;20417;-52
2022/01/08 21:45:07;;;;;;;21.37;5.93;;;2.40;99.90;;;;;;6213508;23;20423;-52
2022/01/08 21:47:35;;;;;;;15.07;6.80;;;2.30;1.00;;;;;;6213023;23;20139;-51
2022/01/08 21:50:02;;;;;;;12.37;6.23;;;2.40;23.80;;;;;;6186028;23;20397;-51
2022/01/08 21:52:28;;;;;;;17.27;6.17;;;2.40;99.90;;;;;;6213284;23;20393;-52
2022/01/08 21:54:53;;;;;;;13.70;5.67;;;2.40;1.00;;;;;;6213814;23;20468;-52
2022/01/08 21:57:19;;;;;;;8.80;5.97;;;2.40;1.00;;;;;;6213116;23;20216;-51
2022/01/08 21:59:45;;;;;;;9.83;5.73;;;2.40;1.00;;;;;;6212560;23;20192;-51
2022/01/08 22:02:11;;;;;;;8.87;6.13;;;2.40;1.00;;;;;;6213296;23;20492;-51
2022/01/08 22:04:37;;;;;;;10.37;5.50;;;2.40;1.00;;;;;;6213599;23;20189;-51
2022/01/08 22:07:03;;;;;;;9.87;6.03;;;2.40;1.00;;;;;;6212742;23;20147;-51
2022/01/08 22:09:28;;;;;;;11.50;6.10;;;2.40;1.00;;;;;;6212943;23;20178;-51
2022/01/08 22:11:54;;;;;;;12.10;5.77;;;2.40;1.00;;;;;;6212717;23;20437;-51
2022/01/08 22:14:19;;;;;;;10.90;5.73;;;2.50;99.90;;;;;;6213796;23;20155;-52
2022/01/08 22:16:45;;;;;;;11.43;4.97;;;2.50;1.00;;;;;;6213053;23;20154;-52
2022/01/08 22:19:10;;;;;;;11.20;5.90;;;2.60;1.00;;;;;;6212296;23;20158;-52
2022/01/08 22:21:36;;;;;;;13.07;6.20;;;2.60;1.00;;;;;;6185399;23;20166;-55
2022/01/08 22:24:04;;;;;;;9.70;5.97;;;2.50;99.90;;;;;;6213244;23;20143;-52
2022/01/08 22:26:30;;;;;;;15.97;6.10;;;2.60;1.00;;;;;;6212832;23;20550;-52
2022/01/08 22:28:56;;;;;;;10.27;5.27;;;2.70;1.00;;;;;;6212406;23;20362;-51
2022/01/08 22:31:22;;;;;;;9.17;5.00;;;2.70;99.90;;;;;;6212595;23;20170;-52
2022/01/08 22:33:47;;;;;;;8.57;4.83;;;2.70;99.90;;;;;;6212987;23;20378;-52
2022/01/08 22:36:13;;;;;;;8.20;5.50;;;2.70;99.90;;;;;;6212942;23;20213;-52
2022/01/08 22:38:39;;;;;;;11.20;4.83;;;2.70;99.90;;;;;;6212449;23;20158;-52
2022/01/08 22:41:04;;;;;;;11.50;6.10;;;2.70;99.90;;;;;;6213020;23;20225;-52
2022/01/08 22:43:30;;;;;;;6.93;4.30;;;2.70;99.90;;;;;;6212666;23;20308;-52
2022/01/08 22:45:55;;;;;;;13.40;5.70;;;2.70;1.00;;;;;;6212382;23;20275;-52
2022/01/08 22:48:21;;;;;;;9.87;5.73;;;2.80;1.00;;;;;;6213059;23;20231;-52
2022/01/08 22:50:46;;;;;;;8.20;4.30;;;2.80;99.90;;;;;;6211314;23;20569;-53
2022/01/08 22:53:13;;;;;;;8.07;4.33;;;2.80;4.60;;;;;;6213859;23;20158;-52
2022/01/08 22:55:38;;;;;;;7.83;4.63;;;2.70;99.90;;;;;;6212406;23;20241;-52
2022/01/08 22:58:04;;;;;;;10.10;5.00;;;2.80;99.90;;;;;;6213809;23;20405;-52
2022/01/08 23:00:42;;;;;;;7.93;4.20;;;2.80;1.00;;;;;;6213239;23;20162;-52
2022/01/08 23:03:07;;;;;;;9.80;4.87;;;2.90;99.90;;;;;;6213167;23;20607;-52
2022/01/08 23:05:35;;;;;;;7.97;5.00;;;2.90;99.90;;;;;;6213041;23;20444;-52
2022/01/08 23:08:01;;;;;;;7.30;4.60;;;3.00;1.00;;;;;;6213225;23;20143;-52
2022/01/08 23:10:26;;;;;;;7.53;3.83;;;3.00;1.00;;;;;;6186404;23;20523;-52
2022/01/08 23:12:52;;;;;;;6.80;4.30;;;2.90;1.00;;;;;;6213515;23;20592;-52
2022/01/08 23:15:17;;;;;;;7.47;4.30;;;3.00;99.90;;;;;;6213185;23;20157;-52
2022/01/08 23:17:43;;;;;;;7.37;4.53;;;2.90;99.90;;;;;;6213561;23;20147;-52
2022/01/08 23:20:10;;;;;;;6.50;4.07;;;3.00;99.90;;;;;;6213162;23;20169;-52
2022/01/08 23:22:36;;;;;;;7.70;4.50;;;3.00;99.90;;;;;;6213694;23;20421;-52
2022/01/08 23:25:03;;;;;;;9.10;4.93;;;3.00;1.00;;;;;;6213221;23;20373;-52
2022/01/08 23:27:28;;;;;;;9.57;4.83;;;3.00;99.90;;;;;;6213744;23;20164;-52
2022/01/08 23:29:54;;;;;;;7.20;4.13;;;3.00;1.00;;;;;;6212984;23;20445;-52
2022/01/08 23:32:20;;;;;;;7.47;4.13;;;3.00;1.00;;;;;;6212801;23;20315;-52
2022/01/08 23:34:45;;;;;;;8.60;5.20;;;3.00;99.90;;;;;;6213399;23;20495;-52
2022/01/08 23:37:11;;;;;;;8.23;4.60;;;3.00;94.60;;;;;;6213261;23;20143;-52
2022/01/08 23:39:36;;;;;;;10.83;4.67;;;3.00;99.90;;;;;;6213105;23;20189;-52
2022/01/08 23:42:03;;;;;;;7.53;3.80;;;3.00;1.00;;;;;;6212714;23;20623;-52
2022/01/08 23:44:29;;;;;;;6.50;4.17;;;3.00;99.90;;;;;;6213455;23;20143;-52
2022/01/08 23:46:56;;;;;;;8.80;4.57;;;3.00;99.90;;;;;;6213165;23;20875;-52
2022/01/08 23:49:25;;;;;;;8.20;4.40;;;3.00;1.00;;;;;;6210943;23;20409;-52
2022/01/08 23:51:52;;;;;;;7.73;4.70;;;3.00;1.00;;;;;;6212987;23;20373;-52
2022/01/08 23:54:18;;;;;;;7.00;3.93;;;3.10;1.00;;;;;;6213408;23;20686;-52
2022/01/08 23:56:45;;;;;;;6.20;4.23;;;3.10;99.90;;;;;;6212792;23;20397;-51
2022/01/08 23:59:10;;;;;;;5.30;4.00;;;3.10;99.90;;;;;;6213168;23;20161;-52
